AirNav   Air Wisconsin pilot careers
 
 975 users online  

M93 Houston County Airport
Mc Kinnon, Tennessee, USA

GOING TO MC KINNON?


FAA INFORMATION EFFECTIVE 28 FEBRUARY 2019

Location

FAA Identifier: M93
Lat/Long: 36-19-00.1980N / 087-55-00.1040W
36-19.003300N / 087-55.001733W
36.3167217 / -87.9166956
(estimated)
Elevation: 370 ft. / 113 m (estimated)
Variation: 00E (1985)
Time zone: UTC -6 (UTC -5 during Daylight Saving Time)
Zip code: 37175

Airport Operations

Airport use: Open to the public
Activation date: 10/1962
Control tower: no
ARTCC: MEMPHIS CENTER
FSS: JACKSON FLIGHT SERVICE STATION
NOTAMs facility: MKL (NOTAM-D service available)
Attendance: UNATNDD
Wind indicator: yes
Segmented circle: no

Airport Communications

CTAF: 122.9

Nearby radio navigation aids

VOR radial/distance  VOR name  Freq  Var
CKVr234/30.4CLARKSVILLE VOR/DME110.6001W

 
NDB name  Hdg/Dist  Freq  Var  ID
TRAINER081/24.541000ETIQ - .. --.-
DICKSON297/26.120301WDMZ -.. -- --..
HUNTINGDON065/30.021702WHZD .... --.. -..

Airport Services

Fuel available: 100LL
Parking: tiedowns
Airframe service: NONE
Powerplant service: NONE
Bottled oxygen: NONE
Bulk oxygen: NONE

Runway Information

Runway 8/26

Dimensions: 3000 x 75 ft. / 914 x 23 m
Surface: asphalt, in good condition
Weight bearing capacity: 
Single wheel: 11.0
Double wheel: 24.0
RUNWAY 8  RUNWAY 26
Gradient: 0.3%0.3%
Traffic pattern: leftleft
Markings: basic, in fair conditionbasic, in fair condition
Runway end identifier lights: nono
Obstructions: 52 ft. trees, 1225 ft. from runway, 89 ft. left of centerline, 10:1 slope to clear
RY 08 TREES ALONG ROAD NEAR ROW OF HOUSES VIOLATE 7:1 TRANSITIONAL SFC.
94 ft. trees, 1157 ft. from runway, 188 ft. left of centerline, 11:1 slope to clear
RY 26 TREES ON SOUTH SIDE OF THLD VIOLATE 7:1 TRANSITIONAL SFC.

Airport Ownership and Management from official FAA records

Ownership: Publicly-owned
Owner: HOUSTON COUNTY
COUNTY COURTHOUSE
ERIN, TN 37061
Phone 931-289-3633
Manager: JAMES K. BRIDGES HOUSTON CNTY MAYOR
COUNTY COURTHOUSE, P.O. BOX 366
ERIN, TN 37061
Phone 931-289-3633

Airport Operational Statistics

Aircraft based on the field: 5
Single engine airplanes: 5
    
Aircraft operations: avg 40/week *
71% local general aviation
14% transient general aviation
14% military
* for 12-month period ending 31 May 2017

Instrument Procedures

There are no published instrument procedures at M93.

Some nearby airports with instrument procedures:

0M5 - Humphreys County Airport (15 nm SE)
0M4 - Benton County Airport (21 nm SW)
KPHT - Henry County Airport (23 nm W)
KEOD - Sabre Army Airfield (Fort Campbell) (26 nm NE)
M02 - Dickson Municipal Airport (26 nm SE)
 
Loc | Ops | Rwys | IFR | FBO | Links
Com | Nav | Svcs | Stats | Notes
Area around M93 (Houston County Airport)
 
Road maps at: MapQuest Bing Google
 
Aerial photo
WARNING: Photo may not be current or correct
Aerial photo of M93 (Houston County Airport)
Photo by Eve Cascella
Photo taken 20-Oct-2008
from the east looking west

Do you have a better or more recent aerial photo of Houston County Airport that you would like to share? If so, please send us your photo.

 
Sectional chart

 
Airport distance calculator
Flying to Houston County Airport? Find the distance to fly.

From to M93

Sunrise and sunset
Times for 24-Mar-2019
 Local
(UTC-5)
 Zulu
(UTC)
Morning civil twilight06:2511:25
Sunrise06:5011:50
Sunset19:0600:06
Evening civil twilight19:3100:31

Current date and time
Zulu (UTC)  24-Mar-2019 15:02:07
Local (UTC-5)  24-Mar-2019 10:02:07
 
METAR
KPHT 
23nm W 
241455Z AUTO 18006KT 5SM BR FEW036 FEW048 10/08 A3016 RMK A01 P0004
KEOD 
26nm NE 
241358Z AUTO 00000KT 10SM FEW055 SCT085 10/M01 A3018 RMK AO2 SLP224 T00981014
KM02 
26nm SE 
241455Z AUTO 24007KT 10SM CLR 14/M02 A3019 RMK A01
KHOP 
29nm NE 
241456Z AUTO 17003KT 6SM -RA OVC038 09/05 A3019 RMK AO2 SLP225 P0004 60004 T00860050 52016
KHZD 
30nm SW 
241455Z AUTO 15006KT 4SM BR FEW040 FEW050 FEW065 10/10 A3017 RMK A01 P0009
KCKV 
30nm NE 
241452Z AUTO 23007KT 3SM -RA BKN060 OVC075 09/03 A3020 RMK AO2 RAB18 SLP228 P0004 60004 T00940028 53016
KCEY 
30nm NW 
241435Z AUTO 14007KT 10SM SCT070 SCT080 09/09 A3015 RMK AO1
KPVE 
42nm S 
241455Z AUTO 18003KT 10SM SCT090 13/03 A3019 RMK A01
KM25 
42nm NW 
241455Z AUTO 18005KT 10SM -RA SCT065 OVC090 11/09 A3015 RMK AO2
TAF
KHOP 
29nm NE 
240800Z 2408/2514 VRB06KT 9999 SCT150 QNH3015INS BECMG 2414/2415 16009KT 8000 -SHRA SCT050 BKN080 510002 QNH3000INS BECMG 2505/2506 VRB06KT 6000 -SHRA BKN020 OVC030 QNH2991INS BECMG 2508/2509 VRB06KT 4800 -SHRA BKN010 OVC020 QNH2992INS TX14/2420Z TN07/2411Z
KCKV 
30nm NE 
241120Z 2412/2512 17006KT P6SM SCT070 BKN150 FM241500 20008KT P6SM VCSH SCT035 OVC060 FM242100 19006KT P6SM BKN050
NOTAMs
Click for the latest NOTAMs
NOTAMs are issued by the DoD/FAA and will open in a separate window not controlled by AirNav.

 

 
 

FBO, Fuel Providers, and Aircraft Ground Support

  
 Business Name 
 
 Contact 
 
 Services / Description 
 
Fuel Prices
 
Comments
  
McKinnon Airport 931-289-3633
[email]
Airport management, Aviation fuel, Hangar leasing / sales

More info about McKinnon Airport
100LL
SS $3.90 
 Updated 18-Mar-2019
 
   1 read write
SS=Self service
Update Fuel Prices
 

Would you like to see your business listed on this page?

 If your business provides an interesting product or service to pilots, flight crews, aircraft, or users of the Houston County Airport, you should consider listing it here.  To start the listing process, click on the button below
 
Add a business
 

Other Pages about Houston County Airport

Update a link
 
Copyright © AirNav, LLC. All rights reserved. Privacy Policy  Contact